Time,TemperatureF,DewpointF,PressureIn,WindDirection,WindDirectionDegrees,WindSpeedMPH,WindSpeedGustMPH,Humidity,HourlyPrecipIn,Conditions,Clouds,dailyrainin,SoftwareType,DateUTC
2013-04-15 00:00:00,31.9,26.4,30.24,WNW,294,2.0,3.0,80,0.00,RA,,0.00,WeatherDisplay:10.37,2013-04-15 04:00:00,
2013-04-15 00:10:00,31.7,26.5,30.24,WNW,294,0.0,2.0,81,0.00,FEW,,0.00,WeatherDisplay:10.37,2013-04-15 04:10:00,
2013-04-15 00:30:00,31.5,26.3,30.25,WNW,294,1.0,2.0,81,0.00,FEW,,0.00,WeatherDisplay:10.37,2013-04-15 04:30:00,
2013-04-15 00:40:00,31.4,26.2,30.25,WNW,294,0.0,2.0,81,0.00,FEW,,0.00,WeatherDisplay:10.37,2013-04-15 04:40:00,
2013-04-15 00:50:00,31.2,26.3,30.25,WNW,294,1.0,3.0,82,0.00,FEW,,0.00,WeatherDisplay:10.37,2013-04-15 04:50:00,
2013-04-15 01:00:00,31.0,26.1,30.25,WNW,294,0.0,0.0,82,0.00,FEW,,0.00,WeatherDisplay:10.37,2013-04-15 05:00:00,
2013-04-15 01:10:00,30.8,26.2,30.25,WNW,294,0.0,0.0,83,0.00,FEW,,0.00,WeatherDisplay:10.37,2013-04-15 05:10:00,
2013-04-15 01:20:00,30.6,26.1,30.25,WNW,294,2.0,3.0,83,0.00,FEW,,0.00,WeatherDisplay:10.37,2013-04-15 05:20:00,
2013-04-15 01:30:00,30.6,26.1,30.25,WNW,294,0.0,3.0,83,0.00,FEW,,0.00,WeatherDisplay:10.37,2013-04-15 05:30:00,
2013-04-15 01:40:00,30.5,26.0,30.25,WNW,294,3.0,3.0,83,0.00,FEW,,0.00,WeatherDisplay:10.37,2013-04-15 05:40:00,
2013-04-15 01:50:00,30.4,25.9,30.25,WNW,294,0.0,3.0,83,0.00,FEW,,0.00,WeatherDisplay:10.37,2013-04-15 05:50:00,
2013-04-15 02:00:00,30.3,26.0,30.24,WNW,294,0.0,0.0,84,0.00,FEW,,0.00,WeatherDisplay:10.37,2013-04-15 06:00:00,
2013-04-15 02:10:00,30.0,25.8,30.24,WNW,294,1.0,3.0,84,0.00,SCT,,0.00,WeatherDisplay:10.37,2013-04-15 06:10:00,
2013-04-15 02:20:00,29.9,25.7,30.24,WNW,294,0.0,0.0,84,0.00,SCT,,0.00,WeatherDisplay:10.37,2013-04-15 06:20:00,
2013-04-15 02:30:00,29.9,25.7,30.24,WNW,294,1.0,5.0,84,0.00,SCT,,0.00,WeatherDisplay:10.37,2013-04-15 06:30:00,
2013-04-15 02:40:00,29.8,25.8,30.23,WNW,294,0.0,1.0,85,0.00,SCT,,0.00,WeatherDisplay:10.37,2013-04-15 06:40:00,
2013-04-15 02:50:00,29.7,25.7,30.24,WNW,294,2.0,3.0,85,0.00,SCT,,0.00,WeatherDisplay:10.37,2013-04-15 06:50:00,
2013-04-15 03:00:00,29.6,25.9,30.23,WNW,294,2.0,3.0,86,0.00,SCT,,0.00,WeatherDisplay:10.37,2013-04-15 07:00:00,
2013-04-15 03:50:00,29.2,25.5,30.26,WNW,294,0.0,0.0,86,0.00,FEW,,0.00,WeatherDisplay:10.37,2013-04-15 07:50:00,
2013-04-15 04:00:00,29.1,25.7,30.27,WNW,294,0.0,0.0,87,0.00,FEW,,0.00,WeatherDisplay:10.37,2013-04-15 08:00:00,
2013-04-15 04:10:00,29.1,25.7,30.27,WNW,294,0.0,0.0,87,0.00,SCT,,0.00,WeatherDisplay:10.37,2013-04-15 08:10:00,
2013-04-15 04:20:00,29.0,25.6,30.27,WNW,294,0.0,0.0,87,0.00,SCT,,0.00,WeatherDisplay:10.37,2013-04-15 08:20:00,
2013-04-15 04:30:00,29.0,25.6,30.27,WNW,294,0.0,2.0,87,0.00,SCT,,0.00,WeatherDisplay:10.37,2013-04-15 08:30:00,
2013-04-15 04:40:00,28.9,25.8,30.27,WNW,294,0.0,2.0,88,0.00,SCT,,0.00,WeatherDisplay:10.37,2013-04-15 08:40:00,
2013-04-15 04:50:00,28.8,25.7,30.28,WNW,294,0.0,0.0,88,0.00,SCT,,0.00,WeatherDisplay:10.37,2013-04-15 08:50:00,
2013-04-15 05:00:00,28.8,25.7,30.28,WNW,294,0.0,0.0,88,0.00,SCT,,0.00,WeatherDisplay:10.37,2013-04-15 09:00:00,
2013-04-15 05:10:00,28.7,25.6,30.28,WNW,294,0.0,0.0,88,0.00,SCT,,0.00,WeatherDisplay:10.37,2013-04-15 09:10:00,
2013-04-15 05:20:00,28.6,25.5,30.29,WNW,294,0.0,0.0,88,0.00,SCT,,0.00,WeatherDisplay:10.37,2013-04-15 09:20:00,
2013-04-15 05:30:00,28.5,25.4,30.29,WNW,294,0.0,0.0,88,0.00,SCT,,0.00,WeatherDisplay:10.37,2013-04-15 09:30:00,
2013-04-15 05:40:00,28.4,25.6,30.30,WNW,294,0.0,0.0,89,0.00,SCT,,0.00,WeatherDisplay:10.37,2013-04-15 09:40:00,
2013-04-15 05:50:00,28.3,25.5,30.31,WNW,294,1.0,3.0,89,0.00,SCT,,0.00,WeatherDisplay:10.37,2013-04-15 09:50:00,
2013-04-15 06:00:00,28.3,25.5,30.32,WNW,294,0.0,2.0,89,0.00,SCT,,0.00,WeatherDisplay:10.37,2013-04-15 10:00:00,
2013-04-15 06:10:00,28.4,25.8,30.32,WNW,294,0.0,0.0,90,0.00,SCT,,0.00,WeatherDisplay:10.37,2013-04-15 10:10:00,
2013-04-15 06:20:00,28.5,25.9,30.32,WNW,294,0.0,0.0,90,0.00,SCT,,0.00,WeatherDisplay:10.37,2013-04-15 10:20:00,
2013-04-15 06:30:00,28.6,26.1,30.33,WNW,294,0.0,0.0,90,0.00,SCT,,0.00,WeatherDisplay:10.37,2013-04-15 10:30:00,
2013-04-15 06:40:00,29.0,26.7,30.33,WNW,294,0.0,0.0,91,0.00,SCT,,0.00,WeatherDisplay:10.37,2013-04-15 10:40:00,
2013-04-15 06:50:00,29.3,27.0,30.34,WNW,294,0.0,0.0,91,0.00,SCT,,0.00,WeatherDisplay:10.37,2013-04-15 10:50:00,
2013-04-15 07:00:00,29.7,27.4,30.34,WNW,294,0.0,0.0,91,0.00,SCT,,0.00,WeatherDisplay:10.37,2013-04-15 11:00:00,
2013-04-15 07:10:00,30.0,28.0,30.35,WNW,294,0.0,0.0,92,0.00,OVC,,0.00,WeatherDisplay:10.37,2013-04-15 11:10:00,
2013-04-15 07:20:00,30.5,28.5,30.35,WNW,294,0.0,0.0,92,0.00,OVC,,0.00,WeatherDisplay:10.37,2013-04-15 11:20:00,
2013-04-15 07:30:00,31.0,28.9,30.36,WNW,294,0.0,0.0,92,0.00,OVC,,0.00,WeatherDisplay:10.37,2013-04-15 11:30:00,
2013-04-15 07:40:00,31.4,29.4,30.37,WNW,294,0.0,2.0,92,0.00,OVC,,0.00,WeatherDisplay:10.37,2013-04-15 11:40:00,
2013-04-15 08:00:00,32.7,30.6,30.36,WNW,294,0.0,0.0,92,0.00,OVC,,0.00,WeatherDisplay:10.37,2013-04-15 12:00:00,
2013-04-15 08:10:00,33.3,31.0,30.36,WNW,294,1.0,3.0,91,0.00,OVC,,0.00,WeatherDisplay:10.37,2013-04-15 12:10:00,
2013-04-15 08:20:00,34.7,31.3,30.36,WNW,294,0.0,3.0,87,0.00,OVC,,0.00,WeatherDisplay:10.37,2013-04-15 12:20:00,
2013-04-15 08:30:00,36.7,31.7,30.36,NNE,15,3.0,5.0,82,0.00,OVC,,0.00,WeatherDisplay:10.37,2013-04-15 12:30:00,
2013-04-15 08:50:00,38.5,32.2,30.36,NNE,26,1.0,5.0,78,0.00,OVC,,0.00,WeatherDisplay:10.37,2013-04-15 12:50:00,
2013-04-15 09:00:00,39.4,31.8,30.36,ENE,62,2.0,3.0,74,0.00,OVC,,0.00,WeatherDisplay:10.37,2013-04-15 13:00:00,
2013-04-15 09:10:00,40.9,32.3,30.36,ENE,76,0.0,5.0,71,0.00,OVC,,0.00,WeatherDisplay:10.37,2013-04-15 13:10:00,
2013-04-15 09:20:00,41.9,31.7,30.36,East,94,2.0,5.0,67,0.00,OVC,,0.00,WeatherDisplay:10.37,2013-04-15 13:20:00,
2013-04-15 09:30:00,43.1,32.8,30.36,ESE,115,3.0,5.0,67,0.00,OVC,,0.00,WeatherDisplay:10.37,2013-04-15 13:30:00,
2013-04-15 09:40:00,43.4,32.4,30.37,ESE,113,2.0,3.0,65,0.00,OVC,,0.00,WeatherDisplay:10.37,2013-04-15 13:40:00,
2013-04-15 09:50:00,43.7,31.5,30.37,SE,135,3.0,5.0,62,0.00,OVC,,0.00,WeatherDisplay:10.37,2013-04-15 13:50:00,
2013-04-15 10:00:00,43.8,31.3,30.37,South,191,2.0,6.0,61,0.00,OVC,,0.00,WeatherDisplay:10.37,2013-04-15 14:00:00,
2013-04-15 10:10:00,44.5,31.1,30.37,SSW,206,6.0,8.0,59,0.00,OVC,,0.00,WeatherDisplay:10.37,2013-04-15 14:10:00,
2013-04-15 10:20:00,45.2,30.4,30.37,South,171,6.0,11.0,56,0.00,OVC,,0.00,WeatherDisplay:10.37,2013-04-15 14:20:00,
2013-04-15 10:30:00,46.1,30.8,30.36,South,172,3.0,6.0,55,0.00,OVC,,0.00,WeatherDisplay:10.37,2013-04-15 14:30:00,
2013-04-15 10:40:00,46.7,30.0,30.36,SSE,147,8.0,11.0,52,0.00,OVC,,0.00,WeatherDisplay:10.37,2013-04-15 14:40:00,
2013-04-15 10:50:00,46.5,29.3,30.36,SSE,158,10.0,12.0,51,0.00,OVC,,0.00,WeatherDisplay:10.37,2013-04-15 14:50:00,
2013-04-15 11:00:00,47.1,30.4,30.36,SSE,156,8.0,9.0,52,0.00,OVC,,0.00,WeatherDisplay:10.37,2013-04-15 15:00:00,
2013-04-15 11:10:00,47.8,31.0,30.35,South,173,8.0,12.0,52,0.00,OVC,,0.00,WeatherDisplay:10.37,2013-04-15 15:10:00,
2013-04-15 11:20:00,49.1,31.7,30.35,SSE,147,3.0,8.0,51,0.00,OVC,,0.00,WeatherDisplay:10.37,2013-04-15 15:20:00,
2013-04-15 11:30:00,50.0,31.0,30.34,SSE,153,8.0,11.0,48,0.00,OVC,,0.00,WeatherDisplay:10.37,2013-04-15 15:30:00,
2013-04-15 11:40:00,50.5,32.0,30.33,SE,142,6.0,11.0,49,0.00,OVC,,0.00,WeatherDisplay:10.37,2013-04-15 15:40:00,
2013-04-15 11:50:00,51.2,31.6,30.33,SSE,158,7.0,11.0,47,0.00,OVC,,0.00,WeatherDisplay:10.37,2013-04-15 15:50:00,
2013-04-15 12:00:00,51.4,32.3,30.33,ESE,114,3.0,11.0,48,0.00,OVC,,0.00,WeatherDisplay:10.37,2013-04-15 16:00:00,
2013-04-15 12:10:00,52.3,32.6,30.33,South,170,5.0,11.0,47,0.00,OVC,,0.00,WeatherDisplay:10.37,2013-04-15 16:10:00,
2013-04-15 12:20:00,52.1,31.4,30.32,SSE,160,7.0,11.0,45,0.00,OVC,,0.00,WeatherDisplay:10.37,2013-04-15 16:20:00,
2013-04-15 12:30:00,52.6,31.9,30.31,SE,144,6.0,11.0,45,0.00,OVC,,0.00,WeatherDisplay:10.37,2013-04-15 16:30:00,
2013-04-15 12:40:00,52.9,31.6,30.31,SSE,149,5.0,10.0,44,0.00,OVC,,0.00,WeatherDisplay:10.37,2013-04-15 16:40:00,
2013-04-15 12:50:00,52.7,31.9,30.31,South,187,8.0,12.0,45,0.00,OVC,,0.00,WeatherDisplay:10.37,2013-04-15 16:50:00,
2013-04-15 13:00:00,52.8,31.5,30.31,SW,217,3.0,11.0,44,0.00,OVC,,0.00,WeatherDisplay:10.37,2013-04-15 17:00:00,
2013-04-15 13:10:00,53.1,32.3,30.31,South,179,8.0,11.0,45,0.00,OVC,,0.00,WeatherDisplay:10.37,2013-04-15 17:10:00,
2013-04-15 13:20:00,53.5,32.7,30.31,SSE,167,6.0,9.0,45,0.00,OVC,,0.00,WeatherDisplay:10.37,2013-04-15 17:20:00,
2013-04-15 13:30:00,53.7,32.9,30.30,SSW,203,5.0,12.0,45,0.00,OVC,,0.00,WeatherDisplay:10.37,2013-04-15 17:30:00,
2013-04-15 13:40:00,53.9,33.0,30.30,SSW,199,3.0,11.0,45,0.00,OVC,,0.00,WeatherDisplay:10.37,2013-04-15 17:40:00,
2013-04-15 13:50:00,53.9,33.0,30.30,South,187,6.0,11.0,45,0.00,OVC,,0.00,WeatherDisplay:10.37,2013-04-15 17:50:00,
2013-04-15 14:00:00,54.7,32.6,30.29,SSE,153,7.0,8.0,43,0.00,OVC,,0.00,WeatherDisplay:10.37,2013-04-15 18:00:00,
2013-04-15 14:10:00,55.9,32.5,30.28,South,184,7.0,11.0,41,0.00,BKN,,0.00,WeatherDisplay:10.37,2013-04-15 18:10:00,
2013-04-15 14:30:00,57.4,33.3,30.27,SE,134,13.0,15.0,40,0.00,BKN,,0.00,WeatherDisplay:10.37,2013-04-15 18:30:00,
2013-04-15 14:40:00,58.0,34.4,30.27,SSE,152,9.0,18.0,41,0.00,BKN,,0.00,WeatherDisplay:10.37,2013-04-15 18:40:00,
2013-04-15 14:50:00,58.4,35.4,30.27,SE,139,3.0,15.0,42,0.00,BKN,,0.00,WeatherDisplay:10.37,2013-04-15 18:50:00,
2013-04-15 15:00:00,58.8,34.5,30.26,SE,141,3.0,14.0,40,0.00,BKN,,0.00,WeatherDisplay:10.37,2013-04-15 19:00:00,
2013-04-15 15:10:00,59.3,36.2,30.26,SSE,149,8.0,12.0,42,0.00,BKN,,0.00,WeatherDisplay:10.37,2013-04-15 19:10:00,
2013-04-15 15:20:00,60.2,35.1,30.25,SSE,151,8.0,12.0,39,0.00,BKN,,0.00,WeatherDisplay:10.37,2013-04-15 19:20:00,
2013-04-15 15:30:00,59.4,35.7,30.25,South,190,8.0,17.0,41,0.00,BKN,,0.00,WeatherDisplay:10.37,2013-04-15 19:30:00,
2013-04-15 15:40:00,59.9,35.5,30.25,SSE,152,10.0,14.0,40,0.00,BKN,,0.00,WeatherDisplay:10.37,2013-04-15 19:40:00,
2013-04-15 16:00:00,60.4,35.3,30.24,SSE,151,13.0,14.0,39,0.00,BKN,,0.00,WeatherDisplay:10.37,2013-04-15 20:00:00,
2013-04-15 16:10:00,60.7,36.2,30.23,SSE,148,7.0,12.0,40,0.00,SCT,,0.00,WeatherDisplay:10.37,2013-04-15 20:10:00,
2013-04-15 16:20:00,60.4,35.3,30.23,SSE,148,14.0,18.0,39,0.00,SCT,,0.00,WeatherDisplay:10.37,2013-04-15 20:20:00,
2013-04-15 16:30:00,60.9,36.4,30.23,SSE,162,9.0,18.0,40,0.00,SCT,,0.00,WeatherDisplay:10.37,2013-04-15 20:30:00,
2013-04-15 16:40:00,60.7,36.3,30.23,SSE,147,7.0,18.0,40,0.00,SCT,,0.00,WeatherDisplay:10.37,2013-04-15 20:40:00,
2013-04-15 16:50:00,60.8,35.7,30.23,SSE,148,12.0,18.0,39,0.00,SCT,,0.00,WeatherDisplay:10.37,2013-04-15 20:50:00,
2013-04-15 17:00:00,61.2,36.0,30.23,SSE,158,8.0,14.0,39,0.00,SCT,,0.00,WeatherDisplay:10.37,2013-04-15 21:00:00,
2013-04-15 17:10:00,61.0,35.8,30.23,SSE,159,12.0,15.0,39,0.00,SCT,,0.00,WeatherDisplay:10.37,2013-04-15 21:10:00,
2013-04-15 17:20:00,61.1,36.6,30.23,SSE,147,10.0,14.0,40,0.00,SCT,,0.00,WeatherDisplay:10.37,2013-04-15 21:20:00,
2013-04-15 17:30:00,61.1,36.6,30.23,SSE,150,9.0,15.0,40,0.00,SCT,,0.00,WeatherDisplay:10.37,2013-04-15 21:30:00,
2013-04-15 17:40:00,60.5,36.1,30.24,SSE,162,6.0,11.0,40,0.00,SCT,,0.00,WeatherDisplay:10.37,2013-04-15 21:40:00,
2013-04-15 17:50:00,59.8,36.0,30.25,SE,141,6.0,11.0,41,0.00,SCT,,0.00,WeatherDisplay:10.37,2013-04-15 21:50:00,
2013-04-15 18:00:00,59.6,36.5,30.25,SSE,159,7.0,12.0,42,0.00,SCT,,0.00,WeatherDisplay:10.37,2013-04-15 22:00:00,
2013-04-15 18:10:00,59.5,36.4,30.25,SSE,156,7.0,14.0,42,0.00,BKN,,0.00,WeatherDisplay:10.37,2013-04-15 22:10:00,
2013-04-15 18:20:00,59.4,36.3,30.25,SSE,164,7.0,17.0,42,0.00,BKN,,0.00,WeatherDisplay:10.37,2013-04-15 22:20:00,
2013-04-15 18:30:00,59.4,36.9,30.25,SSE,147,6.0,11.0,43,0.00,BKN,,0.00,WeatherDisplay:10.37,2013-04-15 22:30:00,
2013-04-15 18:40:00,59.3,36.8,30.24,SE,145,7.0,9.0,43,0.00,BKN,,0.00,WeatherDisplay:10.37,2013-04-15 22:40:00,
2013-04-15 18:50:00,59.3,37.4,30.24,SE,139,3.0,11.0,44,0.00,BKN,,0.00,WeatherDisplay:10.37,2013-04-15 22:50:00,
2013-04-15 19:00:00,59.3,36.8,30.24,SSE,147,7.0,9.0,43,0.00,BKN,,0.00,WeatherDisplay:10.37,2013-04-15 23:00:00,
2013-04-15 19:10:00,59.2,37.3,30.23,SE,142,8.0,11.0,44,0.00,BKN,,0.00,WeatherDisplay:10.37,2013-04-15 23:10:00,
2013-04-15 19:20:00,59.2,36.7,30.23,SE,145,9.0,14.0,43,0.00,BKN,,0.00,WeatherDisplay:10.37,2013-04-15 23:20:00,
2013-04-15 19:30:00,58.9,37.1,30.23,SE,144,9.0,11.0,44,0.00,BKN,,0.00,WeatherDisplay:10.37,2013-04-15 23:30:00,
2013-04-15 19:40:00,58.6,36.8,30.23,SE,144,6.0,12.0,44,0.00,BKN,,0.00,WeatherDisplay:10.37,2013-04-15 23:40:00,
2013-04-15 19:50:00,58.2,36.9,30.23,SE,146,5.0,8.0,45,0.00,BKN,,0.00,WeatherDisplay:10.37,2013-04-15 23:50:00,
2013-04-15 20:00:00,57.7,37.0,30.23,SE,146,6.0,11.0,46,0.00,BKN,,0.00,WeatherDisplay:10.37,2013-04-16 00:00:00,
2013-04-15 20:10:00,57.4,36.8,30.23,SE,142,5.0,9.0,46,0.00,SCT,,0.00,WeatherDisplay:10.37,2013-04-16 00:10:00,
2013-04-15 20:20:00,57.1,37.0,30.23,SE,137,6.0,9.0,47,0.00,SCT,,0.00,WeatherDisplay:10.37,2013-04-16 00:20:00,
2013-04-15 20:30:00,56.8,36.8,30.24,SE,143,8.0,14.0,47,0.00,SCT,,0.00,WeatherDisplay:10.37,2013-04-16 00:30:00,
2013-04-15 20:40:00,56.8,36.7,30.24,SSE,154,9.0,14.0,47,0.00,SCT,,0.00,WeatherDisplay:10.37,2013-04-16 00:40:00,
2013-04-15 20:50:00,56.7,36.1,30.24,SSE,147,10.0,14.0,46,0.00,SCT,,0.00,WeatherDisplay:10.37,2013-04-16 00:50:00,
2013-04-15 21:00:00,56.5,36.0,30.25,SSE,151,12.0,15.0,46,0.00,SCT,,0.00,WeatherDisplay:10.37,2013-04-16 01:00:00,
2013-04-15 21:10:00,56.3,35.8,30.25,SE,146,10.0,14.0,46,0.00,FEW,,0.00,WeatherDisplay:10.37,2013-04-16 01:10:00,
2013-04-15 21:20:00,56.1,35.6,30.26,SSE,147,13.0,17.0,46,0.00,FEW,,0.00,WeatherDisplay:10.37,2013-04-16 01:20:00,
2013-04-15 21:30:00,55.8,35.9,30.26,SSE,149,10.0,23.0,47,0.00,FEW,,0.00,WeatherDisplay:10.37,2013-04-16 01:30:00,
2013-04-15 21:40:00,55.5,36.1,30.26,SSE,159,10.0,21.0,48,0.00,FEW,,0.00,WeatherDisplay:10.37,2013-04-16 01:40:00,
2013-04-15 21:50:00,55.1,36.3,30.26,SE,146,14.0,17.0,49,0.00,FEW,,0.00,WeatherDisplay:10.37,2013-04-16 01:50:00,
2013-04-15 22:00:00,54.7,35.9,30.27,SSE,154,10.0,20.0,49,0.00,FEW,,0.00,WeatherDisplay:10.37,2013-04-16 02:00:00,
2013-04-15 22:10:00,54.2,36.0,30.27,SSE,157,15.0,18.0,50,0.00,FEW,,0.00,WeatherDisplay:10.37,2013-04-16 02:10:00,
2013-04-15 22:20:00,53.9,35.7,30.27,SSE,155,13.0,21.0,50,0.00,FEW,,0.00,WeatherDisplay:10.37,2013-04-16 02:20:00,
2013-04-15 22:30:00,53.5,35.8,30.28,SE,145,13.0,21.0,51,0.00,FEW,,0.00,WeatherDisplay:10.37,2013-04-16 02:30:00,
2013-04-15 22:40:00,53.0,35.3,30.28,SSE,152,17.0,20.0,51,0.00,FEW,,0.00,WeatherDisplay:10.37,2013-04-16 02:40:00,
2013-04-15 22:50:00,52.5,34.9,30.28,SSE,157,20.0,23.0,51,0.00,FEW,,0.00,WeatherDisplay:10.37,2013-04-16 02:50:00,
2013-04-15 23:00:00,52.1,35.0,30.28,SE,144,10.0,20.0,52,0.00,FEW,,0.00,WeatherDisplay:10.37,2013-04-16 03:00:00,
2013-04-15 23:10:00,51.7,35.1,30.28,SSE,148,10.0,20.0,53,0.00,FEW,,0.00,WeatherDisplay:10.37,2013-04-16 03:10:00,
2013-04-15 23:20:00,51.4,34.8,30.28,SSE,156,13.0,18.0,53,0.00,FEW,,0.00,WeatherDisplay:10.37,2013-04-16 03:20:00,
2013-04-15 23:30:00,51.2,34.1,30.28,SE,145,12.0,17.0,52,0.00,FEW,,0.00,WeatherDisplay:10.37,2013-04-16 03:30:00,
2013-04-15 23:40:00,50.9,33.9,30.29,SSE,152,17.0,20.0,52,0.00,FEW,,0.00,WeatherDisplay:10.37,2013-04-16 03:40:00,
2013-04-15 23:50:00,50.8,33.8,30.29,SSE,150,12.0,21.0,52,0.00,FEW,,0.00,WeatherDisplay:10.37,2013-04-16 03:50:00,